KBKV

Brooksville-Tampa Bay Regional Airport

Brooksville, Florida, USA
METAR KBKV 181607Z 28008KT 10SM BKN027 27/19 A3027 RMK AO2 T02670189
Observed Flight Rules
Dec-18 @ 16:07 UTC (15 minutes ago) Marginal Visual Flight Rules
Wind Visibility Clouds
280° at 8 knots 10 miles
  • Broken at 2,700' AGL
Temperatures Readings
Current 27°C / 81°F
Dewpoint 19°C / 66°F
Humidity 62%
Altimeter 30.27" Hg
Pressure 1025 hPa
Elevation 20
METAR KBKV 181607Z 28008KT 10SM BKN027 27/19 A3027 RMK AO2 T02670189
Observed Flight Rules
Dec-18 @ 16:07 UTC
(15 minutes ago)
MVFR
Wind Visibility
280° at 8 knots 10 miles
Clouds
  • Broken at 2,700' AGL
Temperature Dewpoint
27°C / 81°F 19°C / 66°F
Humidity Altimeter Pressure
62% 30.27" Hg 1025 hPa